Muscle Shoals, AL (35661)

8:09 AM CST on February 11, 2016 (GMT -0600)
Jackson Heights | | Change Station
CLOSE
Current Station
Personal Weather Station
Location: Muscle Shoals, AL
Elevation: 525 ft
Nearby Weather Stations

Elev 525 ft 34.75 °N, 87.64 °W | Updated 27 seconds ago

Clear
Clear
32.0 °F
Feels Like 29 °F
N
3.4
Wind Variable Wind from East
Gusts 4.9 mph

Today
High -- | Low -- °F
--% Chance of Precip.
Yesterday
High -- | Low -- °F
Precip. -- in
Pressure 30.20 in
Visibility 10.0 miles
Clouds Clear
Windchill 29 °F
Dew Point 17 °F
Humidity 54%
Rainfall 0.00 in
Snow Depth Not available.
6:40 AM 5:29 PM
Waxing Crescent, 12% visible
METAR KMSL 111353Z AUTO 08007KT 10SM CLR M01/M07 A3018 RMK AO2 SLP225 T10061072
Pressure 30.20 in
Visibility 10.0 miles
Clouds Clear
Windchill 29 °F
Dew Point 17 °F
Humidity 54%
Rainfall 0.00 in
Snow Depth Not available.
6:40 AM 5:29 PM
Waxing Crescent, 12% visible
METAR KMSL 111353Z AUTO 08007KT 10SM CLR M01/M07 A3018 RMK AO2 SLP225 T10061072

10-Day Weather Forecast

Almanac

Astronomy

Feb. 11, 2016 Rise Set
Actual Time
Civil Twilight
Nautical Twilight
Astronomical Twilight
Moon
Length of Visible Light
Length of Day
Tomorrow will be .
, % of the Moon is Illuminated

Today's Extremes

State Highs State Lows

Community

WunderPhotos

Upload Photos

1,892,047 photos uploaded!

WunderBlog® & News

Nearby

Air Quality

  Air Quality AQ Index Pollutant
Not available.

Snow Depth

Station Depth Elevation

Earthquake Activity

City Distance Mag. Time & Date
Minimum magnitude displayed is 2.5.

Coastal Water Temperatures

Place Temperature

Stations

Nearby Weather Stations

Station Location Temp. Windchill Dew Point Humidity Wind Precip. Elev Updated Type
                   

Watches & Warnings

There are currently no watches in effect.